• Join FlightAware (Why Join?)
  • Login
  • US Flag 
09:00AM EST


 

Airport Tracker/Info


-or-


 

Live Flight TrackerFlight Track Log ✈ UPS491 ✈ 27-Mar-2014 ✈ KFSD - KSDF

Flight Track Log - Related Links

Times and Time Zones

All times are in EDT time to prevent confusion due to time zone crossing. See the UPS491 flight status page for this flight to view local times or setup timezone preferences in your user account.

Time Position Orientation Groundspeed Altitude Reporting Facility
EDT Latitude Longitude Course Direction KTS MPH feet Rate Location/Type
11:14PM 43.6022 -96.7225 118° Southeast 151 174 3,500  Level Minneapolis Center
11:15PM 43.5989 -96.6525 94° East 210 242 5,600 2,262 Climbing Minneapolis Center
11:16PM 43.5628 -96.5594 118° Southeast 251 289 8,100 2,656 Climbing Minneapolis Center
11:17PM 43.5233 -96.4600 119° Southeast 278 320 11,000 2,390 Climbing Minneapolis Center
11:18PM 43.4744 -96.3419 120° Southeast 336 387 13,000 2,732 Climbing Minneapolis Center
11:19PM 43.4181 -96.2028 119° Southeast 398 458 16,600 3,689 Climbing Minneapolis Center
11:20PM 43.2339 -95.8987 118° Southeast  Level Estimated
11:20PM 43.3472 -96.0300 119° Southeast 441 507 20,500  Level Minneapolis Center
11:26PM 42.9922 -95.1800 120° Southeast 485 558 33,000 2,083 Climbing FlightAware ADS-B
11:26PM 43.0276 -95.2635 120° Southeast 486 559 33,000 578 Level FlightAware ADS-B (LPVM)
11:28PM 42.8755 -94.9059 118° Southeast 507 583 34,300 453 Climbing FlightAware ADS-B
11:31PM 42.7719 -94.6433 117° Southeast 507 583 35,000 347 Climbing FlightAware ADS-B (LPVM)
11:32PM 42.5619 -94.1106 117° Southeast 500 575 35,800 400 Climbing Chicago Center
11:33PM 42.4956 -93.9450 118° Southeast 502 578 36,000 99 Climbing Chicago Center
11:34PM 42.4292 -93.7797 119° Southeast 503 579 36,000  Level Chicago Center
11:35PM 42.3631 -93.6153 119° Southeast 503 579 36,000  Level Chicago Center
11:36PM 42.2969 -93.4528 119° Southeast 502 578 36,000 295 Level Chicago Center
11:37PM 42.2303 -93.2894 119° Southeast 501 577 36,600 492 Climbing Chicago Center
11:38PM 42.1622 -93.1244 119° Southeast 507 583 37,000 197 Climbing Chicago Center
11:39PM 42.0936 -92.9583 119° Southeast 510 587 37,000  Level Chicago Center
11:45PM 41.6621 -91.9346 120° Southeast 511 588 37,000  Level FlightAware ADS-B (LPVM)
11:46PM 41.6184 -91.8323 120° Southeast 510 587 37,000  Level FlightAware ADS-B
11:46PM 41.5760 -91.7340 120° Southeast 509 586 37,000  Level FlightAware ADS-B
11:47PM 41.5315 -91.6318 120° Southeast 509 586 37,000  Level FlightAware ADS-B
11:48PM 41.4965 -91.5510 120° Southeast 509 586 37,000  Level FlightAware ADS-B
11:48PM 41.4512 -91.4468 120° Southeast 509 586 37,000  Level FlightAware ADS-B (LPVM)
11:49PM 41.4121 -91.3571 120° Southeast 509 586 37,000  Level FlightAware ADS-B (LPVM)
11:49PM 41.3802 -91.2842 120° Southeast 510 587 37,000  Level FlightAware ADS-B (LPVM)
11:50PM 41.3561 -91.2293 120° Southeast 510 587 37,000  Level FlightAware ADS-B (LPVM)
11:51PM 41.2818 -91.0609 120° Southeast 510 587 37,000  Level FlightAware ADS-B
11:51PM 41.2358 -90.9568 120° Southeast 510 587 37,000  Level FlightAware ADS-B (LPVM)
11:52PM 41.1976 -90.8709 121° Southeast 512 589 37,000  Level FlightAware ADS-B
11:52PM 41.2000 -90.8764 120° Southeast 513 590 37,000  Level FlightAware ADS-B
11:53PM 41.1203 -90.6975 121° Southeast 514 592 37,000  Level FlightAware ADS-B
11:53PM 41.0783 -90.6040 121° Southeast 515 593 37,000  Level FlightAware ADS-B
11:54PM 41.0600 -90.5625 121° Southeast 515 593 37,000  Level FlightAware ADS-B
11:54PM 41.0310 -90.4983 121° Southeast 515 593 37,000  Level FlightAware ADS-B
11:55PM 40.9945 -90.4167 121° Southeast 514 592 37,000  Level FlightAware ADS-B
11:55PM 40.9432 -90.3034 121° Southeast 512 589 37,000  Level FlightAware ADS-B
11:56PM 40.9261 -90.2658 121° Southeast 513 590 37,000  Level FlightAware ADS-B
11:57PM 40.8732 -90.1490 121° Southeast 512 589 37,000  Level FlightAware ADS-B
11:57PM 40.7818 -89.9492 121° Southeast 513 590 37,000  Level FlightAware ADS-B
11:58PM 40.7119 -89.7976 121° Southeast 514 592 37,000  Level FlightAware ADS-B
11:59PM 40.6699 -89.7062 121° Southeast 516 594 37,000  Level FlightAware ADS-B
11:59PM 40.6780 -89.7240 121° Southeast 519 597 37,000  Level FlightAware ADS-B
12:00AM 40.5995 -89.5542 122° Southeast 521 600 37,000  Level FlightAware ADS-B
12:01AM 40.5584 -89.4700 124° Southeast 521 600 37,000  Level FlightAware ADS-B
12:01AM 40.5234 -89.4022 126° Southeast 520 598 37,000  Level FlightAware ADS-B
12:02AM 40.4322 -89.2350 126° Southeast 524 603 37,000  Level FlightAware ADS-B
12:02AM 40.3896 -89.1591 127° Southeast 523 602 37,000  Level FlightAware ADS-B
12:03AM 40.3321 -89.0577 127° Southeast 523 602 37,000  Level FlightAware ADS-B
12:04AM 40.2881 -88.9799 126° Southeast 522 601 37,000  Level FlightAware ADS-B
12:04AM 40.2477 -88.9088 127° Southeast 521 600 37,000  Level FlightAware ADS-B
12:05AM 40.2059 -88.8350 127° Southeast 518 596 37,000  Level FlightAware ADS-B
12:05AM 40.1588 -88.7520 127° Southeast 516 594 37,000  Level FlightAware ADS-B
12:05AM 40.1358 -88.7115 126° Southeast 516 594 37,000  Level FlightAware ADS-B
12:07AM 40.0021 -88.4770 127° Southeast 509 586 37,000  Level FlightAware ADS-B
12:07AM 39.9556 -88.3962 127° Southeast 508 585 37,000  Level FlightAware ADS-B
12:08AM 39.8971 -88.2941 127° Southeast 508 585 37,000 -316 Level FlightAware ADS-B
12:09AM 39.8482 -88.2094 127° Southeast 504 580 36,600 -933 Descending FlightAware ADS-B
12:10AM 39.8133 -88.1489 127° Southeast 502 578 35,600 -865 Descending FlightAware ADS-B
12:11AM 39.7106 -87.9717 127° Southeast 503 579 35,000 -632 Descending Indianapolis Center
12:12AM 39.6281 -87.8306 127° Southeast 495 570 34,400 -744 Descending Indianapolis Center
12:13AM 39.5464 -87.6906 127° Southeast 491 565 33,500 -787 Descending Indianapolis Center
12:14AM 39.4525 -87.5306 127° Southeast 449 517 32,800 -1,033 Descending Indianapolis Center
12:15AM 39.3808 -87.4094 127° Southeast 424 488 31,400 -1,377 Descending Indianapolis Center
12:16AM 39.3028 -87.3156 137° Southeast 362 417 30,000 -1,426 Descending Indianapolis Center
12:17AM 39.2158 -87.3133 179° South 309 356 28,500 -1,525 Descending Indianapolis Center
12:18AM 39.1322 -87.2939 170° South 333 383 26,900 -1,820 Descending Indianapolis Center
12:19AM 39.0667 -87.1761 126° Southeast 387 445 24,800 -1,967 Descending Indianapolis Center
12:20AM 39.0181 -87.0517 117° Southeast 386 444 22,900 -2,016 Descending Indianapolis Center
12:21AM 38.9700 -86.9325 117° Southeast 372 428 20,700 -2,033 Descending Indianapolis Center
12:22AM 38.9231 -86.8161 117° Southeast 367 422 18,800 -1,884 Descending Indianapolis Center
12:23AM 38.8769 -86.7025 118° Southeast 356 410 16,900 -2,016 Descending Indianapolis Center
12:24AM 38.8325 -86.5933 118° Southeast 341 392 14,700 -2,115 Descending Indianapolis Center
12:25AM 38.7903 -86.4900 118° Southeast 324 373 12,600 -1,820 Descending Indianapolis Center
12:26AM 38.7500 -86.3908 117° Southeast 315 362 11,000 -787 Descending Indianapolis Center
12:27AM 38.7064 -86.2947 120° Southeast 308 354 11,000  Level Indianapolis Center
12:28AM 38.6467 -86.2211 136° Southeast 298 343 11,000 -492 Level Indianapolis Center
12:29AM 38.5786 -86.1828 156° South 265 305 10,000 -636 Descending Indianapolis Center
12:35AM 38.1950 -86.0909 135° Southeast 262 302 6,400 -616 Descending FlightAware ADS-B (EPWR / WRO)
12:36AM 38.1660 -85.9983 69° East 324 373 5,700 -830 Descending FlightAware ADS-B (EKHG)
12:37AM 38.1879 -85.9267 38° Northeast 294 338 5,100 -641 Descending FlightAware ADS-B (EKHG)
12:38AM 38.2539 -85.8952 350° North 245 282 4,600 -647 Descending FlightAware ADS-B (EKHG)
12:38AM 38.3167 -85.9000 350° North 251 289 4,000 -414 Descending Louisville TRACON
12:39AM 38.3456 -85.9167 336° Northwest 259 298 4,000  Level Indianapolis Center
12:40AM 38.4150 -85.9331 350° North 256 295 4,000  Level Indianapolis Center
12:41AM 38.4858 -85.9500 349° North 256 295 4,000 -295 Level Indianapolis Center
12:42AM 38.5531 -85.9653 350° North 255 293 3,400 -492 Descending Indianapolis Center
12:43AM 38.6083 -85.9514 11° North 246 283 3,000 -197 Descending Indianapolis Center
12:44AM 38.5894 -85.9050 118° Southeast 183 211 3,000  Level Indianapolis Center
12:45AM 38.5519 -85.8692 143° Southeast 152 175 3,000  Level Indianapolis Center
12:46AM 38.5164 -85.8567 165° South 139 160 3,000  Level Indianapolis Center
12:47AM 38.4814 -85.8458 166° South 134 154 3,000  Level Indianapolis Center
12:48AM 38.4478 -85.8344 165° South 132 152 3,000  Level Indianapolis Center
12:49AM 38.4142 -85.8239 166° South 129 148 3,000  Level Indianapolis Center
12:50AM 38.3811 -85.8125 165° South 128 147 3,000  Level Indianapolis Center
12:51AM 38.3467 -85.8008 165° South 128 147 3,000  Level Indianapolis Center
12:52AM 38.3106 -85.7894 166° South 128 147 3,000 -197 Level Indianapolis Center
12:53AM 38.2731 -85.7767 165° South 128 147 2,600 -667 Descending Indianapolis Center
12:55AM 38.2000 -85.7500 164° South 129 148 900 -797 Descending Louisville TRACON